sensor_id;sensor_type;location;lat;lon;timestamp;pressure;altitude;pressure_sealevel;temperature;humidity
4767;BME280;2397;53.576;9.746;2023-10-19T00:01:15;100204.38;;;8.37;81.36
4767;BME280;2397;53.576;9.746;2023-10-19T00:03:45;100190.94;;;8.40;81.10
4767;BME280;2397;53.576;9.746;2023-10-19T00:06:11;100183.56;;;8.44;80.60
4767;BME280;2397;53.576;9.746;2023-10-19T00:08:38;100187.16;;;8.43;81.02
4767;BME280;2397;53.576;9.746;2023-10-19T00:11:11;100189.78;;;8.43;81.01
4767;BME280;2397;53.576;9.746;2023-10-19T00:13:48;100180.69;;;8.37;81.54
4767;BME280;2397;53.576;9.746;2023-10-19T00:16:20;100178.47;;;8.42;80.86
4767;BME280;2397;53.576;9.746;2023-10-19T00:18:53;100174.00;;;8.43;81.25
4767;BME280;2397;53.576;9.746;2023-10-19T00:21:19;100178.91;;;8.38;81.21
4767;BME280;2397;53.576;9.746;2023-10-19T00:23:57;100174.00;;;8.43;80.92
4767;BME280;2397;53.576;9.746;2023-10-19T00:26:25;100178.97;;;8.46;81.10
4767;BME280;2397;53.576;9.746;2023-10-19T00:28:55;100184.72;;;8.41;81.53
4767;BME280;2397;53.576;9.746;2023-10-19T00:31:27;100162.06;;;8.48;81.30
4767;BME280;2397;53.576;9.746;2023-10-19T00:33:56;100164.88;;;8.47;80.87
4767;BME280;2397;53.576;9.746;2023-10-19T00:36:23;100156.00;;;8.48;80.93
4767;BME280;2397;53.576;9.746;2023-10-19T00:38:51;100156.50;;;8.51;80.71
4767;BME280;2397;53.576;9.746;2023-10-19T00:41:27;100148.78;;;8.50;80.57
4767;BME280;2397;53.576;9.746;2023-10-19T00:43:58;100138.78;;;8.53;80.45
4767;BME280;2397;53.576;9.746;2023-10-19T00:46:38;100144.03;;;8.53;80.20
4767;BME280;2397;53.576;9.746;2023-10-19T00:49:10;100145.03;;;8.52;80.51
4767;BME280;2397;53.576;9.746;2023-10-19T00:51:41;100153.94;;;8.59;80.14
4767;BME280;2397;53.576;9.746;2023-10-19T00:54:13;100148.47;;;8.53;80.30
4767;BME280;2397;53.576;9.746;2023-10-19T00:56:45;100143.34;;;8.51;80.81
4767;BME280;2397;53.576;9.746;2023-10-19T00:59:18;100143.00;;;8.46;80.76
4767;BME280;2397;53.576;9.746;2023-10-19T01:01:51;100136.31;;;8.52;80.72
4767;BME280;2397;53.576;9.746;2023-10-19T01:04:22;100143.59;;;8.58;80.41
4767;BME280;2397;53.576;9.746;2023-10-19T01:06:59;100127.97;;;8.56;80.55
4767;BME280;2397;53.576;9.746;2023-10-19T01:09:34;100119.75;;;8.59;80.91
4767;BME280;2397;53.576;9.746;2023-10-19T01:12:02;100128.78;;;8.57;79.89
4767;BME280;2397;53.576;9.746;2023-10-19T01:17:45;100116.59;;;8.56;80.54
4767;BME280;2397;53.576;9.746;2023-10-19T01:20:14;100111.78;;;8.51;80.35
4767;BME280;2397;53.576;9.746;2023-10-19T01:22:56;100100.81;;;8.56;80.41
4767;BME280;2397;53.576;9.746;2023-10-19T01:25:50;100089.81;;;8.52;80.49
4767;BME280;2397;53.576;9.746;2023-10-19T01:31:11;100091.16;;;8.56;79.91
4767;BME280;2397;53.576;9.746;2023-10-19T01:33:49;100073.03;;;8.53;80.42
4767;BME280;2397;53.576;9.746;2023-10-19T01:36:16;100072.19;;;8.53;81.09
4767;BME280;2397;53.576;9.746;2023-10-19T01:38:52;100062.25;;;8.64;80.44
4767;BME280;2397;53.576;9.746;2023-10-19T01:41:23;100062.38;;;8.55;80.44
4767;BME280;2397;53.576;9.746;2023-10-19T01:43:52;100058.75;;;8.56;80.39
4767;BME280;2397;53.576;9.746;2023-10-19T01:46:22;100057.56;;;8.50;80.98
4767;BME280;2397;53.576;9.746;2023-10-19T01:48:57;100049.66;;;8.50;80.98
4767;BME280;2397;53.576;9.746;2023-10-19T01:51:27;100044.72;;;8.47;81.29
4767;BME280;2397;53.576;9.746;2023-10-19T01:53:57;100046.06;;;8.51;80.54
4767;BME280;2397;53.576;9.746;2023-10-19T01:56:23;100047.03;;;8.50;80.59
4767;BME280;2397;53.576;9.746;2023-10-19T01:58:51;100052.16;;;8.52;80.32
4767;BME280;2397;53.576;9.746;2023-10-19T02:01:21;100043.28;;;8.53;80.24
4767;BME280;2397;53.576;9.746;2023-10-19T02:03:59;100038.31;;;8.50;80.01
4767;BME280;2397;53.576;9.746;2023-10-19T02:06:29;100040.50;;;8.54;80.58
4767;BME280;2397;53.576;9.746;2023-10-19T02:09:04;100049.56;;;8.60;80.22
4767;BME280;2397;53.576;9.746;2023-10-19T02:11:46;100044.41;;;8.50;80.06
4767;BME280;2397;53.576;9.746;2023-10-19T02:14:16;100045.00;;;8.44;80.65
4767;BME280;2397;53.576;9.746;2023-10-19T02:16:44;100052.59;;;8.47;80.77
4767;BME280;2397;53.576;9.746;2023-10-19T02:19:13;100056.06;;;8.48;80.80
4767;BME280;2397;53.576;9.746;2023-10-19T02:21:41;100049.38;;;8.53;80.46
4767;BME280;2397;53.576;9.746;2023-10-19T02:24:08;100044.72;;;8.47;80.47
4767;BME280;2397;53.576;9.746;2023-10-19T02:26:35;100050.28;;;8.44;80.71
4767;BME280;2397;53.576;9.746;2023-10-19T02:29:04;100046.69;;;8.45;80.85
4767;BME280;2397;53.576;9.746;2023-10-19T02:31:35;100049.31;;;8.45;80.41
4767;BME280;2397;53.576;9.746;2023-10-19T02:34:04;100044.50;;;8.41;80.43
4767;BME280;2397;53.576;9.746;2023-10-19T02:36:31;100047.50;;;8.46;81.35
4767;BME280;2397;53.576;9.746;2023-10-19T02:39:00;100039.41;;;8.39;81.08
4767;BME280;2397;53.576;9.746;2023-10-19T02:41:27;100048.78;;;8.42;81.49
4767;BME280;2397;53.576;9.746;2023-10-19T02:43:55;100044.56;;;8.49;81.19
4767;BME280;2397;53.576;9.746;2023-10-19T02:46:29;100045.00;;;8.44;81.20
4767;BME280;2397;53.576;9.746;2023-10-19T02:48:55;100036.78;;;8.39;81.53
4767;BME280;2397;53.576;9.746;2023-10-19T02:51:23;100034.66;;;8.43;80.87
4767;BME280;2397;53.576;9.746;2023-10-19T02:53:49;100035.84;;;8.48;80.70
4767;BME280;2397;53.576;9.746;2023-10-19T02:56:16;100024.97;;;8.43;80.86
4767;BME280;2397;53.576;9.746;2023-10-19T02:58:43;100029.25;;;8.44;81.10
4767;BME280;2397;53.576;9.746;2023-10-19T03:01:19;100031.88;;;8.44;80.88
4767;BME280;2397;53.576;9.746;2023-10-19T03:03:51;100019.34;;;8.38;80.98
4767;BME280;2397;53.576;9.746;2023-10-19T03:06:21;100022.19;;;8.45;81.16
4767;BME280;2397;53.576;9.746;2023-10-19T03:08:49;100014.59;;;8.42;81.65
4767;BME280;2397;53.576;9.746;2023-10-19T03:11:24;100015.28;;;8.44;83.19
4767;BME280;2397;53.576;9.746;2023-10-19T03:13:54;100021.31;;;8.36;84.31
4767;BME280;2397;53.576;9.746;2023-10-19T03:16:21;100008.09;;;8.28;85.88
4767;BME280;2397;53.576;9.746;2023-10-19T03:18:50;100017.59;;;8.21;87.85
4767;BME280;2397;53.576;9.746;2023-10-19T03:21:17;100012.44;;;8.20;89.21
4767;BME280;2397;53.576;9.746;2023-10-19T03:23:45;100013.81;;;8.06;91.17
4767;BME280;2397;53.576;9.746;2023-10-19T03:26:12;100001.97;;;8.02;92.74
4767;BME280;2397;53.576;9.746;2023-10-19T03:28:57;100004.25;;;7.97;94.47
4767;BME280;2397;53.576;9.746;2023-10-19T03:31:34;100000.28;;;7.93;96.23
4767;BME280;2397;53.576;9.746;2023-10-19T03:34:10;99989.69;;;7.85;97.49
4767;BME280;2397;53.576;9.746;2023-10-19T03:36:39;99985.03;;;7.79;97.86
4767;BME280;2397;53.576;9.746;2023-10-19T03:39:06;99984.75;;;7.82;99.17
4767;BME280;2397;53.576;9.746;2023-10-19T03:41:45;99990.75;;;7.75;100.00
4767;BME280;2397;53.576;9.746;2023-10-19T03:44:12;99993.16;;;7.68;100.00
4767;BME280;2397;53.576;9.746;2023-10-19T03:46:45;99992.63;;;7.65;100.00
4767;BME280;2397;53.576;9.746;2023-10-19T03:49:27;99989.47;;;7.61;100.00
4767;BME280;2397;53.576;9.746;2023-10-19T03:51:59;99984.16;;;7.53;100.00
4767;BME280;2397;53.576;9.746;2023-10-19T03:54:35;99977.78;;;7.56;100.00
4767;BME280;2397;53.576;9.746;2023-10-19T03:57:11;99970.03;;;7.54;100.00
4767;BME280;2397;53.576;9.746;2023-10-19T03:59:49;99965.69;;;7.45;100.00
4767;BME280;2397;53.576;9.746;2023-10-19T04:02:18;99967.84;;;7.50;100.00
4767;BME280;2397;53.576;9.746;2023-10-19T04:04:48;99971.63;;;7.47;100.00
4767;BME280;2397;53.576;9.746;2023-10-19T04:07:15;99970.13;;;7.45;100.00
4767;BME280;2397;53.576;9.746;2023-10-19T04:09:45;99966.00;;;7.42;100.00
4767;BME280;2397;53.576;9.746;2023-10-19T04:12:43;99965.22;;;7.50;100.00
4767;BME280;2397;53.576;9.746;2023-10-19T04:15:11;99964.66;;;7.38;100.00
4767;BME280;2397;53.576;9.746;2023-10-19T04:17:45;99962.97;;;7.37;100.00
4767;BME280;2397;53.576;9.746;2023-10-19T04:20:16;99967.63;;;7.43;100.00
4767;BME280;2397;53.576;9.746;2023-10-19T04:22:44;99970.13;;;7.45;100.00
4767;BME280;2397;53.576;9.746;2023-10-19T04:25:15;99968.78;;;7.41;100.00
4767;BME280;2397;53.576;9.746;2023-10-19T04:27:43;99969.00;;;7.47;100.00
4767;BME280;2397;53.576;9.746;2023-10-19T04:30:10;99969.28;;;7.44;100.00
4767;BME280;2397;53.576;9.746;2023-10-19T04:32:44;99967.09;;;7.40;100.00
4767;BME280;2397;53.576;9.746;2023-10-19T04:35:12;99970.41;;;7.42;100.00
4767;BME280;2397;53.576;9.746;2023-10-19T04:37:49;99970.84;;;7.37;100.00
4767;BME280;2397;53.576;9.746;2023-10-19T04:40:17;99971.16;;;7.34;100.00
4767;BME280;2397;53.576;9.746;2023-10-19T04:42:45;99962.69;;;7.40;100.00
4767;BME280;2397;53.576;9.746;2023-10-19T04:45:13;99968.09;;;7.39;100.00
4767;BME280;2397;53.576;9.746;2023-10-19T04:47:40;99960.66;;;7.34;100.00
4767;BME280;2397;53.576;9.746;2023-10-19T04:50:07;99959.16;;;7.32;100.00
4767;BME280;2397;53.576;9.746;2023-10-19T04:52:34;99952.25;;;7.31;100.00
4767;BME280;2397;53.576;9.746;2023-10-19T04:55:00;99954.59;;;7.34;100.00
4767;BME280;2397;53.576;9.746;2023-10-19T04:57:28;99960.00;;;7.32;100.00
4767;BME280;2397;53.576;9.746;2023-10-19T04:59:54;99955.72;;;7.31;100.00
4767;BME280;2397;53.576;9.746;2023-10-19T05:02:21;99957.00;;;7.27;100.00
4767;BME280;2397;53.576;9.746;2023-10-19T05:04:48;99957.66;;;7.29;100.00
4767;BME280;2397;53.576;9.746;2023-10-19T05:07:15;99948.28;;;7.27;100.00
4767;BME280;2397;53.576;9.746;2023-10-19T05:09:45;99930.75;;;7.27;100.00
4767;BME280;2397;53.576;9.746;2023-10-19T05:12:13;99937.03;;;7.34;100.00
4767;BME280;2397;53.576;9.746;2023-10-19T05:14:42;99938.69;;;7.35;100.00
4767;BME280;2397;53.576;9.746;2023-10-19T05:17:09;99926.16;;;7.29;100.00
4767;BME280;2397;53.576;9.746;2023-10-19T05:19:37;99933.38;;;7.27;100.00
4767;BME280;2397;53.576;9.746;2023-10-19T05:22:08;99931.41;;;7.29;100.00
4767;BME280;2397;53.576;9.746;2023-10-19T05:24:35;99931.56;;;7.28;100.00
4767;BME280;2397;53.576;9.746;2023-10-19T05:27:02;99926.84;;;7.31;100.00
4767;BME280;2397;53.576;9.746;2023-10-19T05:29:31;99923.97;;;7.25;100.00
4767;BME280;2397;53.576;9.746;2023-10-19T05:31:59;99915.59;;;7.21;100.00
4767;BME280;2397;53.576;9.746;2023-10-19T05:34:27;99911.97;;;7.22;100.00
4767;BME280;2397;53.576;9.746;2023-10-19T05:36:56;99922.19;;;7.25;100.00
4767;BME280;2397;53.576;9.746;2023-10-19T05:39:25;99906.44;;;7.25;100.00
4767;BME280;2397;53.576;9.746;2023-10-19T05:41:55;99898.13;;;7.30;100.00
4767;BME280;2397;53.576;9.746;2023-10-19T05:44:22;99890.56;;;7.27;100.00
4767;BME280;2397;53.576;9.746;2023-10-19T05:46:51;99902.03;;;7.26;100.00
4767;BME280;2397;53.576;9.746;2023-10-19T05:49:18;99908.56;;;7.22;100.00
4767;BME280;2397;53.576;9.746;2023-10-19T05:51:44;99908.69;;;7.20;100.00
4767;BME280;2397;53.576;9.746;2023-10-19T05:54:12;99896.84;;;7.16;100.00
4767;BME280;2397;53.576;9.746;2023-10-19T05:56:38;99887.78;;;7.11;100.00
4767;BME280;2397;53.576;9.746;2023-10-19T05:59:05;99884.41;;;7.18;100.00
4767;BME280;2397;53.576;9.746;2023-10-19T06:01:33;99887.31;;;7.15;100.00
4767;BME280;2397;53.576;9.746;2023-10-19T06:04:00;99878.72;;;7.23;100.00
4767;BME280;2397;53.576;9.746;2023-10-19T06:06:26;99860.13;;;7.16;100.00
4767;BME280;2397;53.576;9.746;2023-10-19T06:08:53;99854.78;;;7.08;100.00
4767;BME280;2397;53.576;9.746;2023-10-19T06:11:21;99857.56;;;7.07;100.00
4767;BME280;2397;53.576;9.746;2023-10-19T06:13:47;99863.91;;;7.04;100.00
4767;BME280;2397;53.576;9.746;2023-10-19T06:16:14;99869.50;;;7.01;100.00
4767;BME280;2397;53.576;9.746;2023-10-19T06:18:42;99885.25;;;7.01;100.00
4767;BME280;2397;53.576;9.746;2023-10-19T06:21:10;99890.09;;;6.96;100.00
4767;BME280;2397;53.576;9.746;2023-10-19T06:23:38;99894.75;;;7.02;100.00
4767;BME280;2397;53.576;9.746;2023-10-19T06:26:09;99904.25;;;7.03;100.00
4767;BME280;2397;53.576;9.746;2023-10-19T06:28:38;99896.38;;;7.03;100.00
4767;BME280;2397;53.576;9.746;2023-10-19T06:31:07;99888.22;;;7.06;100.00
4767;BME280;2397;53.576;9.746;2023-10-19T06:33:34;99894.97;;;7.08;100.00
4767;BME280;2397;53.576;9.746;2023-10-19T06:36:02;99895.56;;;7.02;100.00
4767;BME280;2397;53.576;9.746;2023-10-19T06:38:30;99893.03;;;7.11;100.00
4767;BME280;2397;53.576;9.746;2023-10-19T06:40:59;99886.94;;;7.10;100.00
4767;BME280;2397;53.576;9.746;2023-10-19T06:43:25;99878.78;;;7.13;100.00
4767;BME280;2397;53.576;9.746;2023-10-19T06:45:58;99883.88;;;7.15;100.00
4767;BME280;2397;53.576;9.746;2023-10-19T06:48:26;99891.06;;;7.13;100.00
4767;BME280;2397;53.576;9.746;2023-10-19T06:50:53;99889.13;;;7.15;100.00
4767;BME280;2397;53.576;9.746;2023-10-19T06:53:20;99880.44;;;7.14;100.00
4767;BME280;2397;53.576;9.746;2023-10-19T06:55:48;99885.09;;;7.20;100.00
4767;BME280;2397;53.576;9.746;2023-10-19T06:58:14;99882.47;;;7.20;100.00
4767;BME280;2397;53.576;9.746;2023-10-19T07:00:41;99896.25;;;7.22;100.00
4767;BME280;2397;53.576;9.746;2023-10-19T07:03:13;99899.16;;;7.19;100.00
4767;BME280;2397;53.576;9.746;2023-10-19T07:05:40;99907.03;;;7.19;100.00
4767;BME280;2397;53.576;9.746;2023-10-19T07:08:06;99908.84;;;7.19;100.00
4767;BME280;2397;53.576;9.746;2023-10-19T07:10:33;99918.50;;;7.18;100.00
4767;BME280;2397;53.576;9.746;2023-10-19T07:13:01;99921.81;;;7.20;100.00
4767;BME280;2397;53.576;9.746;2023-10-19T07:15:28;99923.69;;;7.28;100.00
4767;BME280;2397;53.576;9.746;2023-10-19T07:17:57;99922.34;;;7.24;100.00
4767;BME280;2397;53.576;9.746;2023-10-19T07:20:24;99919.41;;;7.27;100.00
4767;BME280;2397;53.576;9.746;2023-10-19T07:22:58;99903.53;;;7.28;100.00
4767;BME280;2397;53.576;9.746;2023-10-19T07:25:48;99894.31;;;7.24;100.00
4767;BME280;2397;53.576;9.746;2023-10-19T07:28:19;99894.00;;;7.27;100.00
4767;BME280;2397;53.576;9.746;2023-10-19T07:30:46;99900.22;;;7.26;100.00
4767;BME280;2397;53.576;9.746;2023-10-19T07:33:14;99894.53;;;7.31;100.00
4767;BME280;2397;53.576;9.746;2023-10-19T07:35:48;99894.88;;;7.36;100.00
4767;BME280;2397;53.576;9.746;2023-10-19T07:38:18;99884.53;;;7.34;100.00
4767;BME280;2397;53.576;9.746;2023-10-19T07:40:48;99891.38;;;7.45;100.00
4767;BME280;2397;53.576;9.746;2023-10-19T07:43:14;99883.63;;;7.43;100.00
4767;BME280;2397;53.576;9.746;2023-10-19T07:45:41;99884.63;;;7.42;100.00
4767;BME280;2397;53.576;9.746;2023-10-19T07:48:09;99886.63;;;7.48;100.00
4767;BME280;2397;53.576;9.746;2023-10-19T07:50:39;99895.03;;;7.52;100.00
4767;BME280;2397;53.576;9.746;2023-10-19T07:53:09;99893.22;;;7.52;100.00
4767;BME280;2397;53.576;9.746;2023-10-19T07:55:36;99890.53;;;7.44;100.00
4767;BME280;2397;53.576;9.746;2023-10-19T07:58:05;99899.69;;;7.40;100.00
4767;BME280;2397;53.576;9.746;2023-10-19T08:00:35;99876.75;;;7.42;100.00
4767;BME280;2397;53.576;9.746;2023-10-19T08:03:03;99861.00;;;7.42;100.00
4767;BME280;2397;53.576;9.746;2023-10-19T08:05:31;99858.53;;;7.41;100.00
4767;BME280;2397;53.576;9.746;2023-10-19T08:07:58;99836.38;;;7.43;100.00
4767;BME280;2397;53.576;9.746;2023-10-19T08:10:26;99831.78;;;7.45;100.00
4767;BME280;2397;53.576;9.746;2023-10-19T08:12:53;99828.88;;;7.48;100.00
4767;BME280;2397;53.576;9.746;2023-10-19T08:15:22;99829.56;;;7.50;100.00
4767;BME280;2397;53.576;9.746;2023-10-19T08:17:51;99846.28;;;7.49;100.00
4767;BME280;2397;53.576;9.746;2023-10-19T08:20:20;99857.09;;;7.46;100.00
4767;BME280;2397;53.576;9.746;2023-10-19T08:22:52;99862.63;;;7.43;100.00
4767;BME280;2397;53.576;9.746;2023-10-19T08:25:20;99874.47;;;7.47;100.00
4767;BME280;2397;53.576;9.746;2023-10-19T08:27:48;99866.91;;;7.44;100.00
4767;BME280;2397;53.576;9.746;2023-10-19T08:30:20;99859.09;;;7.52;100.00
4767;BME280;2397;53.576;9.746;2023-10-19T08:32:52;99856.25;;;7.46;100.00
4767;BME280;2397;53.576;9.746;2023-10-19T08:35:19;99854.47;;;7.46;100.00
4767;BME280;2397;53.576;9.746;2023-10-19T08:37:54;99841.34;;;7.46;100.00
4767;BME280;2397;53.576;9.746;2023-10-19T08:40:21;99852.34;;;7.50;100.00
4767;BME280;2397;53.576;9.746;2023-10-19T08:42:50;99842.69;;;7.50;100.00
4767;BME280;2397;53.576;9.746;2023-10-19T08:45:17;99852.53;;;7.56;100.00
4767;BME280;2397;53.576;9.746;2023-10-19T08:50:19;99843.06;;;7.63;100.00
4767;BME280;2397;53.576;9.746;2023-10-19T08:52:52;99845.09;;;7.69;100.00
4767;BME280;2397;53.576;9.746;2023-10-19T08:55:20;99848.81;;;7.84;100.00
4767;BME280;2397;53.576;9.746;2023-10-19T08:58:02;99846.91;;;7.69;100.00
4767;BME280;2397;53.576;9.746;2023-10-19T09:00:49;99848.41;;;7.71;100.00
4767;BME280;2397;53.576;9.746;2023-10-19T09:03:18;99838.25;;;7.76;100.00
4767;BME280;2397;53.576;9.746;2023-10-19T09:05:45;99843.50;;;7.76;100.00
4767;BME280;2397;53.576;9.746;2023-10-19T09:08:14;99859.28;;;7.76;100.00
4767;BME280;2397;53.576;9.746;2023-10-19T09:10:43;99865.50;;;7.75;100.00
4767;BME280;2397;53.576;9.746;2023-10-19T09:13:12;99867.81;;;7.78;100.00
4767;BME280;2397;53.576;9.746;2023-10-19T09:15:40;99879.97;;;7.79;100.00
4767;BME280;2397;53.576;9.746;2023-10-19T09:18:22;99871.56;;;7.76;100.00
4767;BME280;2397;53.576;9.746;2023-10-19T09:20:50;99861.22;;;7.74;100.00
4767;BME280;2397;53.576;9.746;2023-10-19T09:23:24;99857.63;;;7.75;100.00
4767;BME280;2397;53.576;9.746;2023-10-19T09:25:57;99842.47;;;7.69;100.00
4767;BME280;2397;53.576;9.746;2023-10-19T09:28:25;99845.25;;;7.68;100.00
4767;BME280;2397;53.576;9.746;2023-10-19T09:30:52;99846.59;;;7.72;100.00
4767;BME280;2397;53.576;9.746;2023-10-19T09:33:21;99848.03;;;7.66;100.00
4767;BME280;2397;53.576;9.746;2023-10-19T09:35:49;99858.91;;;7.71;100.00
4767;BME280;2397;53.576;9.746;2023-10-19T09:38:18;99877.97;;;7.73;100.00
4767;BME280;2397;53.576;9.746;2023-10-19T09:40:52;99877.31;;;7.71;100.00
4767;BME280;2397;53.576;9.746;2023-10-19T09:43:27;99884.19;;;7.72;100.00
4767;BME280;2397;53.576;9.746;2023-10-19T09:45:57;99885.84;;;7.73;100.00
4767;BME280;2397;53.576;9.746;2023-10-19T09:48:26;99884.25;;;7.80;100.00
4767;BME280;2397;53.576;9.746;2023-10-19T09:50:54;99881.91;;;7.77;100.00
4767;BME280;2397;53.576;9.746;2023-10-19T09:53:24;99881.31;;;7.83;100.00
4767;BME280;2397;53.576;9.746;2023-10-19T09:55:54;99887.72;;;7.81;100.00
4767;BME280;2397;53.576;9.746;2023-10-19T09:58:36;99890.22;;;7.90;100.00
4767;BME280;2397;53.576;9.746;2023-10-19T10:01:05;99898.06;;;7.82;100.00
4767;BME280;2397;53.576;9.746;2023-10-19T10:06:12;99883.56;;;7.78;100.00
4767;BME280;2397;53.576;9.746;2023-10-19T10:08:42;99881.63;;;7.80;100.00
4767;BME280;2397;53.576;9.746;2023-10-19T10:11:18;99871.09;;;7.80;100.00
4767;BME280;2397;53.576;9.746;2023-10-19T10:13:45;99866.88;;;7.87;100.00
4767;BME280;2397;53.576;9.746;2023-10-19T10:16:13;99868.69;;;7.87;100.00
4767;BME280;2397;53.576;9.746;2023-10-19T10:18:41;99873.78;;;7.88;100.00
4767;BME280;2397;53.576;9.746;2023-10-19T10:21:15;99871.00;;;7.90;100.00
4767;BME280;2397;53.576;9.746;2023-10-19T10:23:56;99861.84;;;7.94;100.00
4767;BME280;2397;53.576;9.746;2023-10-19T10:26:26;99854.75;;;7.86;100.00
4767;BME280;2397;53.576;9.746;2023-10-19T10:29:25;99864.56;;;7.84;100.00
4767;BME280;2397;53.576;9.746;2023-10-19T10:31:53;99855.53;;;7.87;100.00
4767;BME280;2397;53.576;9.746;2023-10-19T10:34:42;99866.84;;;7.79;100.00
4767;BME280;2397;53.576;9.746;2023-10-19T10:37:13;99854.66;;;7.78;100.00
4767;BME280;2397;53.576;9.746;2023-10-19T10:39:40;99858.22;;;7.69;100.00
4767;BME280;2397;53.576;9.746;2023-10-19T10:42:08;99853.28;;;7.66;100.00
4767;BME280;2397;53.576;9.746;2023-10-19T10:47:20;99857.09;;;7.72;100.00
4767;BME280;2397;53.576;9.746;2023-10-19T10:49:56;99864.53;;;7.76;100.00
4767;BME280;2397;53.576;9.746;2023-10-19T10:52:28;99862.88;;;7.75;100.00
4767;BME280;2397;53.576;9.746;2023-10-19T10:55:06;99866.16;;;7.77;100.00
4767;BME280;2397;53.576;9.746;2023-10-19T10:57:34;99870.59;;;7.77;100.00
4767;BME280;2397;53.576;9.746;2023-10-19T11:00:10;99870.75;;;7.75;100.00
4767;BME280;2397;53.576;9.746;2023-10-19T11:02:43;99865.81;;;7.72;100.00
4767;BME280;2397;53.576;9.746;2023-10-19T11:05:10;99874.19;;;7.76;100.00
4767;BME280;2397;53.576;9.746;2023-10-19T11:07:49;99869.16;;;7.82;100.00
4767;BME280;2397;53.576;9.746;2023-10-19T11:10:28;99873.88;;;7.79;100.00
4767;BME280;2397;53.576;9.746;2023-10-19T11:13:03;99877.06;;;7.82;100.00
4767;BME280;2397;53.576;9.746;2023-10-19T11:15:29;99881.31;;;7.83;100.00
4767;BME280;2397;53.576;9.746;2023-10-19T11:17:56;99870.84;;;7.91;100.00
4767;BME280;2397;53.576;9.746;2023-10-19T11:20:24;99866.44;;;7.92;100.00
4767;BME280;2397;53.576;9.746;2023-10-19T11:22:52;99860.84;;;7.95;100.00
4767;BME280;2397;53.576;9.746;2023-10-19T11:25:25;99860.69;;;7.96;100.00
4767;BME280;2397;53.576;9.746;2023-10-19T11:27:55;99858.56;;;7.92;100.00
4767;BME280;2397;53.576;9.746;2023-10-19T11:30:24;99856.22;;;7.89;100.00
4767;BME280;2397;53.576;9.746;2023-10-19T11:32:51;99855.78;;;7.93;100.00
4767;BME280;2397;53.576;9.746;2023-10-19T11:35:25;99848.47;;;7.79;100.00
4767;BME280;2397;53.576;9.746;2023-10-19T11:37:53;99843.56;;;7.84;100.00
4767;BME280;2397;53.576;9.746;2023-10-19T11:40:21;99840.28;;;7.82;100.00
4767;BME280;2397;53.576;9.746;2023-10-19T11:42:49;99835.81;;;7.83;100.00
4767;BME280;2397;53.576;9.746;2023-10-19T11:45:16;99827.75;;;7.76;100.00
4767;BME280;2397;53.576;9.746;2023-10-19T11:47:44;99825.78;;;7.78;100.00
4767;BME280;2397;53.576;9.746;2023-10-19T11:50:12;99825.47;;;7.81;100.00
4767;BME280;2397;53.576;9.746;2023-10-19T11:52:44;99821.66;;;7.76;100.00
4767;BME280;2397;53.576;9.746;2023-10-19T11:55:14;99829.03;;;7.72;100.00
4767;BME280;2397;53.576;9.746;2023-10-19T11:57:44;99829.19;;;7.71;100.00
4767;BME280;2397;53.576;9.746;2023-10-19T12:00:11;99828.06;;;7.73;100.00
4767;BME280;2397;53.576;9.746;2023-10-19T12:02:48;99817.09;;;7.78;100.00
4767;BME280;2397;53.576;9.746;2023-10-19T12:05:15;99791.28;;;7.73;100.00
4767;BME280;2397;53.576;9.746;2023-10-19T12:07:42;99784.09;;;7.75;100.00
4767;BME280;2397;53.576;9.746;2023-10-19T12:10:11;99765.06;;;7.81;100.00
4767;BME280;2397;53.576;9.746;2023-10-19T12:12:38;99763.75;;;7.85;100.00
4767;BME280;2397;53.576;9.746;2023-10-19T12:15:24;99764.75;;;7.84;100.00
4767;BME280;2397;53.576;9.746;2023-10-19T12:17:52;99780.50;;;7.84;100.00
4767;BME280;2397;53.576;9.746;2023-10-19T12:20:19;99778.50;;;7.78;100.00
4767;BME280;2397;53.576;9.746;2023-10-19T12:22:48;99784.41;;;7.72;100.00
4767;BME280;2397;53.576;9.746;2023-10-19T12:25:18;99772.13;;;7.81;100.00
4767;BME280;2397;53.576;9.746;2023-10-19T12:27:45;99765.44;;;7.86;100.00
4767;BME280;2397;53.576;9.746;2023-10-19T12:30:12;99775.25;;;7.84;100.00
4767;BME280;2397;53.576;9.746;2023-10-19T12:32:48;99779.19;;;7.80;100.00
4767;BME280;2397;53.576;9.746;2023-10-19T12:35:18;99775.56;;;7.81;100.00
4767;BME280;2397;53.576;9.746;2023-10-19T12:37:56;99776.84;;;7.77;100.00
4767;BME280;2397;53.576;9.746;2023-10-19T12:40:22;99776.25;;;7.83;100.00
4767;BME280;2397;53.576;9.746;2023-10-19T12:42:53;99774.13;;;7.87;100.00
4767;BME280;2397;53.576;9.746;2023-10-19T12:45:24;99762.13;;;7.84;100.00
4767;BME280;2397;53.576;9.746;2023-10-19T12:47:51;99761.81;;;7.87;100.00
4767;BME280;2397;53.576;9.746;2023-10-19T12:50:19;99761.81;;;7.87;100.00
4767;BME280;2397;53.576;9.746;2023-10-19T12:52:49;99752.63;;;7.91;100.00
4767;BME280;2397;53.576;9.746;2023-10-19T12:55:17;99760.34;;;7.93;100.00
4767;BME280;2397;53.576;9.746;2023-10-19T12:57:44;99751.78;;;7.91;100.00
4767;BME280;2397;53.576;9.746;2023-10-19T13:00:11;99747.22;;;7.93;100.00
4767;BME280;2397;53.576;9.746;2023-10-19T13:02:50;99747.19;;;7.85;100.00
4767;BME280;2397;53.576;9.746;2023-10-19T13:05:17;99756.03;;;7.84;100.00
4767;BME280;2397;53.576;9.746;2023-10-19T13:07:47;99751.00;;;7.90;100.00
4767;BME280;2397;53.576;9.746;2023-10-19T13:10:13;99745.59;;;7.92;100.00
4767;BME280;2397;53.576;9.746;2023-10-19T13:12:40;99741.81;;;7.94;100.00
4767;BME280;2397;53.576;9.746;2023-10-19T13:15:08;99762.84;;;7.94;100.00
4767;BME280;2397;53.576;9.746;2023-10-19T13:17:39;99770.72;;;7.94;100.00
4767;BME280;2397;53.576;9.746;2023-10-19T13:20:06;99762.69;;;7.96;100.00
4767;BME280;2397;53.576;9.746;2023-10-19T13:22:43;99749.38;;;7.97;100.00
4767;BME280;2397;53.576;9.746;2023-10-19T13:25:10;99753.19;;;8.03;100.00
4767;BME280;2397;53.576;9.746;2023-10-19T13:27:39;99770.41;;;7.97;100.00
4767;BME280;2397;53.576;9.746;2023-10-19T13:30:09;99765.78;;;7.91;100.00
4767;BME280;2397;53.576;9.746;2023-10-19T13:32:38;99767.56;;;7.91;100.00
4767;BME280;2397;53.576;9.746;2023-10-19T13:35:06;99762.16;;;7.92;100.00
4767;BME280;2397;53.576;9.746;2023-10-19T13:37:33;99753.81;;;7.97;100.00
4767;BME280;2397;53.576;9.746;2023-10-19T13:40:00;99746.75;;;7.97;100.00
4767;BME280;2397;53.576;9.746;2023-10-19T13:42:27;99748.25;;;8.08;100.00
4767;BME280;2397;53.576;9.746;2023-10-19T13:44:53;99756.28;;;7.98;100.00
4767;BME280;2397;53.576;9.746;2023-10-19T13:47:20;99748.41;;;7.98;100.00
4767;BME280;2397;53.576;9.746;2023-10-19T13:49:46;99743.75;;;7.92;100.00
4767;BME280;2397;53.576;9.746;2023-10-19T13:52:13;99749.53;;;7.96;100.00